< < Back
Terminal Aerodrome Forecast


Current Version              Previous Versions:   1  2  3  4  5  6  7  8  9  

Terminal Aerodrome Forecast

111
FTUS42 KGSP 250532
TAFGSP
TAF
KGSP 250532Z 2506/2606 16005KT P6SM FEW060 BKN250
     FM251000 16004KT P6SM BKN050
     FM251700 19006KT P6SM BKN060
     FM252100 18008KT P6SM BKN060 PROB30 2521/2524 4SM TSRA BKN040CB
     FM260000 15004KT P6SM OVC050 PROB30 2600/2603 4SM TSRA OVC040CB
     FM260500 15005KT P6SM OVC020=



Latest METAR

619
SAUS70 KWBC 250700 RRM
MTRGSP
METAR KGSP 250653Z AUTO 17004KT 10SM CLR 16/13 A3029 RMK AO2 SLP249
T01610133


USA.gov is the U.S. government's official web portal to all federal, state and local government web resources and services.